sensor_id;sensor_type;location;lat;lon;timestamp;pressure;altitude;pressure_sealevel;temperature;humidity
53546;BME280;39432;51.902;10.844;2023-08-06T00:00:09;98832.06;;;17.70;100.00
53546;BME280;39432;51.902;10.844;2023-08-06T00:02:41;98828.44;;;17.43;100.00
53546;BME280;39432;51.902;10.844;2023-08-06T00:05:11;98813.81;;;17.69;100.00
53546;BME280;39432;51.902;10.844;2023-08-06T00:07:44;98798.84;;;18.13;100.00
53546;BME280;39432;51.902;10.844;2023-08-06T00:10:17;98791.66;;;17.51;100.00
53546;BME280;39432;51.902;10.844;2023-08-06T00:12:47;98807.00;;;16.38;100.00
53546;BME280;39432;51.902;10.844;2023-08-06T00:15:18;98810.72;;;16.65;100.00
53546;BME280;39432;51.902;10.844;2023-08-06T00:17:47;98819.41;;;17.11;100.00
53546;BME280;39432;51.902;10.844;2023-08-06T00:20:18;98804.50;;;17.38;100.00
53546;BME280;39432;51.902;10.844;2023-08-06T00:22:47;98792.78;;;15.77;100.00
53546;BME280;39432;51.902;10.844;2023-08-06T00:25:20;98807.31;;;15.92;100.00
53546;BME280;39432;51.902;10.844;2023-08-06T00:27:50;98828.84;;;16.26;100.00
53546;BME280;39432;51.902;10.844;2023-08-06T00:30:20;98825.75;;;16.72;100.00
53546;BME280;39432;51.902;10.844;2023-08-06T00:32:50;98811.59;;;16.20;100.00
53546;BME280;39432;51.902;10.844;2023-08-06T00:35:20;98814.31;;;16.12;100.00
53546;BME280;39432;51.902;10.844;2023-08-06T00:37:50;98821.91;;;16.82;100.00
53546;BME280;39432;51.902;10.844;2023-08-06T00:40:23;98800.25;;;16.22;100.00
53546;BME280;39432;51.902;10.844;2023-08-06T00:42:55;98799.81;;;15.84;100.00
53546;BME280;39432;51.902;10.844;2023-08-06T00:45:25;98809.78;;;15.93;100.00
53546;BME280;39432;51.902;10.844;2023-08-06T00:47:57;98818.19;;;15.88;100.00
53546;BME280;39432;51.902;10.844;2023-08-06T00:50:27;98824.78;;;15.51;100.00
53546;BME280;39432;51.902;10.844;2023-08-06T00:52:58;98830.28;;;16.01;100.00
53546;BME280;39432;51.902;10.844;2023-08-06T00:55:31;98830.53;;;15.91;100.00
53546;BME280;39432;51.902;10.844;2023-08-06T00:58:02;98829.78;;;15.63;100.00
53546;BME280;39432;51.902;10.844;2023-08-06T01:00:33;98836.81;;;15.69;100.00
53546;BME280;39432;51.902;10.844;2023-08-06T01:03:03;98844.28;;;16.04;100.00
53546;BME280;39432;51.902;10.844;2023-08-06T01:05:34;98835.25;;;16.13;100.00
53546;BME280;39432;51.902;10.844;2023-08-06T01:08:12;98818.19;;;16.33;100.00
53546;BME280;39432;51.902;10.844;2023-08-06T01:10:55;98809.06;;;16.86;100.00
53546;BME280;39432;51.902;10.844;2023-08-06T01:13:33;98795.34;;;16.72;100.00
53546;BME280;39432;51.902;10.844;2023-08-06T01:16:05;98777.56;;;16.87;100.00
53546;BME280;39432;51.902;10.844;2023-08-06T01:18:36;98763.97;;;17.17;100.00
53546;BME280;39432;51.902;10.844;2023-08-06T01:21:11;98743.25;;;16.48;100.00
53546;BME280;39432;51.902;10.844;2023-08-06T01:23:41;98761.50;;;16.04;100.00
53546;BME280;39432;51.902;10.844;2023-08-06T01:26:15;98770.09;;;16.96;100.00
53546;BME280;39432;51.902;10.844;2023-08-06T01:28:51;98756.97;;;17.10;100.00
53546;BME280;39432;51.902;10.844;2023-08-06T01:31:26;98738.13;;;17.38;100.00
53546;BME280;39432;51.902;10.844;2023-08-06T01:33:58;98721.84;;;16.63;100.00
53546;BME280;39432;51.902;10.844;2023-08-06T01:36:32;98723.88;;;15.64;100.00
53546;BME280;39432;51.902;10.844;2023-08-06T01:39:04;98739.69;;;16.56;100.00
53546;BME280;39432;51.902;10.844;2023-08-06T01:41:34;98718.41;;;17.05;100.00
53546;BME280;39432;51.902;10.844;2023-08-06T01:44:04;98702.00;;;17.00;100.00
53546;BME280;39432;51.902;10.844;2023-08-06T01:46:34;98689.97;;;16.56;100.00
53546;BME280;39432;51.902;10.844;2023-08-06T01:49:04;98693.56;;;17.23;100.00
53546;BME280;39432;51.902;10.844;2023-08-06T01:51:37;98688.13;;;15.81;100.00
53546;BME280;39432;51.902;10.844;2023-08-06T01:54:07;98701.84;;;15.14;100.00
53546;BME280;39432;51.902;10.844;2023-08-06T01:56:37;98742.50;;;15.44;100.00
53546;BME280;39432;51.902;10.844;2023-08-06T01:59:07;98758.97;;;16.17;100.00
53546;BME280;39432;51.902;10.844;2023-08-06T02:01:37;98746.94;;;15.54;100.00
53546;BME280;39432;51.902;10.844;2023-08-06T02:04:08;98741.03;;;16.28;100.00
53546;BME280;39432;51.902;10.844;2023-08-06T02:06:40;98734.13;;;15.49;100.00
53546;BME280;39432;51.902;10.844;2023-08-06T02:09:10;98731.22;;;15.68;100.00
53546;BME280;39432;51.902;10.844;2023-08-06T02:11:41;98730.28;;;15.95;100.00
53546;BME280;39432;51.902;10.844;2023-08-06T02:14:11;98722.69;;;16.01;100.00
53546;BME280;39432;51.902;10.844;2023-08-06T02:16:41;98719.69;;;16.20;100.00
53546;BME280;39432;51.902;10.844;2023-08-06T02:19:11;98721.31;;;15.31;100.00
53546;BME280;39432;51.902;10.844;2023-08-06T02:21:44;98733.63;;;15.11;100.00
53546;BME280;39432;51.902;10.844;2023-08-06T02:24:14;98758.31;;;15.02;100.00
53546;BME280;39432;51.902;10.844;2023-08-06T02:26:44;98782.69;;;15.09;100.00
53546;BME280;39432;51.902;10.844;2023-08-06T02:29:16;98774.56;;;15.40;100.00
53546;BME280;39432;51.902;10.844;2023-08-06T02:31:47;98761.63;;;15.77;100.00
53546;BME280;39432;51.902;10.844;2023-08-06T02:34:17;98740.66;;;15.76;100.00
53546;BME280;39432;51.902;10.844;2023-08-06T02:36:50;98719.38;;;15.68;100.00
53546;BME280;39432;51.902;10.844;2023-08-06T02:39:20;98720.03;;;15.96;100.00
53546;BME280;39432;51.902;10.844;2023-08-06T02:41:50;98700.22;;;16.25;100.00
53546;BME280;39432;51.902;10.844;2023-08-06T02:44:21;98691.22;;;16.42;100.00
53546;BME280;39432;51.902;10.844;2023-08-06T02:46:51;98674.75;;;15.97;100.00
53546;BME280;39432;51.902;10.844;2023-08-06T02:49:21;98663.41;;;15.98;100.00
53546;BME280;39432;51.902;10.844;2023-08-06T02:51:53;98665.13;;;16.17;100.00
53546;BME280;39432;51.902;10.844;2023-08-06T02:54:23;98664.31;;;16.65;100.00
53546;BME280;39432;51.902;10.844;2023-08-06T02:56:54;98654.81;;;15.69;100.00
53546;BME280;39432;51.902;10.844;2023-08-06T02:59:28;98654.66;;;15.96;100.00
53546;BME280;39432;51.902;10.844;2023-08-06T03:02:05;98667.81;;;15.54;100.00
53546;BME280;39432;51.902;10.844;2023-08-06T03:04:47;98691.41;;;15.61;100.00
53546;BME280;39432;51.902;10.844;2023-08-06T03:07:22;98690.56;;;15.60;100.00
53546;BME280;39432;51.902;10.844;2023-08-06T03:09:57;98694.44;;;15.73;100.00
53546;BME280;39432;51.902;10.844;2023-08-06T03:12:29;98694.56;;;15.68;100.00
53546;BME280;39432;51.902;10.844;2023-08-06T03:15:00;98698.47;;;15.98;100.00
53546;BME280;39432;51.902;10.844;2023-08-06T03:17:30;98703.19;;;15.75;100.00
53546;BME280;39432;51.902;10.844;2023-08-06T03:20:03;98696.06;;;15.60;100.00
53546;BME280;39432;51.902;10.844;2023-08-06T03:22:38;98686.25;;;15.45;100.00
53546;BME280;39432;51.902;10.844;2023-08-06T03:25:08;98694.25;;;14.97;100.00
53546;BME280;39432;51.902;10.844;2023-08-06T03:27:41;98703.00;;;14.99;100.00
53546;BME280;39432;51.902;10.844;2023-08-06T03:30:13;98725.03;;;15.13;100.00
53546;BME280;39432;51.902;10.844;2023-08-06T03:32:43;98735.84;;;15.09;100.00
53546;BME280;39432;51.902;10.844;2023-08-06T03:35:16;98736.81;;;15.27;100.00
53546;BME280;39432;51.902;10.844;2023-08-06T03:37:49;98744.13;;;15.45;100.00
53546;BME280;39432;51.902;10.844;2023-08-06T03:40:19;98746.22;;;15.62;100.00
53546;BME280;39432;51.902;10.844;2023-08-06T03:42:49;98735.25;;;15.12;100.00
53546;BME280;39432;51.902;10.844;2023-08-06T03:45:19;98738.56;;;15.59;100.00
53546;BME280;39432;51.902;10.844;2023-08-06T03:47:49;98720.59;;;15.39;100.00
53546;BME280;39432;51.902;10.844;2023-08-06T03:50:19;98716.84;;;15.21;100.00
53546;BME280;39432;51.902;10.844;2023-08-06T03:52:52;98718.66;;;15.26;100.00
53546;BME280;39432;51.902;10.844;2023-08-06T03:55:22;98721.16;;;15.14;100.00
53546;BME280;39432;51.902;10.844;2023-08-06T03:57:52;98733.84;;;14.87;100.00
53546;BME280;39432;51.902;10.844;2023-08-06T04:00:22;98747.44;;;15.34;100.00
53546;BME280;39432;51.902;10.844;2023-08-06T04:02:53;98746.75;;;15.28;100.00
53546;BME280;39432;51.902;10.844;2023-08-06T04:05:23;98749.41;;;15.55;100.00
53546;BME280;39432;51.902;10.844;2023-08-06T04:07:55;98739.88;;;15.39;100.00
53546;BME280;39432;51.902;10.844;2023-08-06T04:10:26;98734.28;;;15.67;100.00
53546;BME280;39432;51.902;10.844;2023-08-06T04:12:57;98728.38;;;15.82;100.00
53546;BME280;39432;51.902;10.844;2023-08-06T04:15:27;98724.81;;;15.81;100.00
53546;BME280;39432;51.902;10.844;2023-08-06T04:17:57;98707.28;;;15.77;100.00
53546;BME280;39432;51.902;10.844;2023-08-06T04:20:27;98711.53;;;15.25;100.00
53546;BME280;39432;51.902;10.844;2023-08-06T04:23:06;98715.47;;;15.33;100.00
53546;BME280;39432;51.902;10.844;2023-08-06T04:25:36;98715.47;;;15.69;100.00
53546;BME280;39432;51.902;10.844;2023-08-06T04:28:06;98708.81;;;15.92;100.00
53546;BME280;39432;51.902;10.844;2023-08-06T04:30:37;98704.00;;;15.75;100.00
53546;BME280;39432;51.902;10.844;2023-08-06T04:33:08;98698.41;;;16.20;100.00
53546;BME280;39432;51.902;10.844;2023-08-06T04:35:38;98676.19;;;16.17;100.00
53546;BME280;39432;51.902;10.844;2023-08-06T04:38:11;98669.97;;;15.80;100.00
53546;BME280;39432;51.902;10.844;2023-08-06T04:40:42;98685.16;;;15.69;100.00
53546;BME280;39432;51.902;10.844;2023-08-06T04:43:11;98684.75;;;15.39;100.00
53546;BME280;39432;51.902;10.844;2023-08-06T04:45:45;98716.34;;;16.00;100.00
53546;BME280;39432;51.902;10.844;2023-08-06T04:48:15;98716.53;;;16.35;100.00
53546;BME280;39432;51.902;10.844;2023-08-06T04:50:46;98707.38;;;16.26;100.00
53546;BME280;39432;51.902;10.844;2023-08-06T04:53:19;98685.31;;;15.95;100.00
53546;BME280;39432;51.902;10.844;2023-08-06T04:55:49;98700.94;;;15.77;100.00
53546;BME280;39432;51.902;10.844;2023-08-06T04:58:19;98702.03;;;15.98;100.00
53546;BME280;39432;51.902;10.844;2023-08-06T05:00:49;98690.09;;;15.80;100.00
53546;BME280;39432;51.902;10.844;2023-08-06T05:03:20;98687.31;;;15.58;100.00
53546;BME280;39432;51.902;10.844;2023-08-06T05:05:49;98697.66;;;15.52;100.00
53546;BME280;39432;51.902;10.844;2023-08-06T05:08:22;98702.81;;;15.68;100.00
53546;BME280;39432;51.902;10.844;2023-08-06T05:10:52;98709.03;;;15.60;100.00
53546;BME280;39432;51.902;10.844;2023-08-06T05:13:22;98716.84;;;15.80;100.00
53546;BME280;39432;51.902;10.844;2023-08-06T05:15:53;98700.50;;;16.46;100.00
53546;BME280;39432;51.902;10.844;2023-08-06T05:18:23;98694.22;;;16.63;100.00
53546;BME280;39432;51.902;10.844;2023-08-06T05:20:54;98678.19;;;16.73;100.00
53546;BME280;39432;51.902;10.844;2023-08-06T05:23:26;98659.59;;;17.31;100.00
53546;BME280;39432;51.902;10.844;2023-08-06T05:25:56;98635.00;;;17.12;100.00
53546;BME280;39432;51.902;10.844;2023-08-06T05:28:26;98623.13;;;16.77;100.00
53546;BME280;39432;51.902;10.844;2023-08-06T05:30:56;98609.72;;;16.44;100.00
53546;BME280;39432;51.902;10.844;2023-08-06T05:33:26;98624.88;;;16.16;100.00
53546;BME280;39432;51.902;10.844;2023-08-06T05:35:57;98632.09;;;16.34;100.00
53546;BME280;39432;51.902;10.844;2023-08-06T05:38:30;98632.56;;;15.96;100.00
53546;BME280;39432;51.902;10.844;2023-08-06T05:41:00;98634.50;;;17.01;100.00
53546;BME280;39432;51.902;10.844;2023-08-06T05:43:30;98635.34;;;15.96;100.00
53546;BME280;39432;51.902;10.844;2023-08-06T05:46:00;98653.16;;;16.30;100.00
53546;BME280;39432;51.902;10.844;2023-08-06T05:48:31;98651.72;;;16.81;100.00
53546;BME280;39432;51.902;10.844;2023-08-06T05:51:01;98639.91;;;17.32;100.00
53546;BME280;39432;51.902;10.844;2023-08-06T05:53:33;98610.81;;;16.34;100.00
53546;BME280;39432;51.902;10.844;2023-08-06T05:56:03;98619.75;;;16.40;100.00
53546;BME280;39432;51.902;10.844;2023-08-06T05:58:33;98626.78;;;16.06;100.00
53546;BME280;39432;51.902;10.844;2023-08-06T06:01:03;98639.16;;;16.18;100.00
53546;BME280;39432;51.902;10.844;2023-08-06T06:03:33;98648.72;;;16.12;100.00
53546;BME280;39432;51.902;10.844;2023-08-06T06:06:03;98648.44;;;16.70;100.00
53546;BME280;39432;51.902;10.844;2023-08-06T06:08:36;98635.84;;;16.47;100.00
53546;BME280;39432;51.902;10.844;2023-08-06T06:11:06;98626.59;;;16.51;100.00
53546;BME280;39432;51.902;10.844;2023-08-06T06:13:36;98623.69;;;16.56;100.00
53546;BME280;39432;51.902;10.844;2023-08-06T06:16:06;98628.97;;;16.84;100.00
53546;BME280;39432;51.902;10.844;2023-08-06T06:18:36;98608.16;;;16.78;100.00
53546;BME280;39432;51.902;10.844;2023-08-06T06:21:06;98601.13;;;17.67;100.00
53546;BME280;39432;51.902;10.844;2023-08-06T06:23:39;98577.38;;;17.57;100.00
53546;BME280;39432;51.902;10.844;2023-08-06T06:26:09;98562.13;;;17.34;100.00
53546;BME280;39432;51.902;10.844;2023-08-06T06:28:39;98566.84;;;17.25;100.00
53546;BME280;39432;51.902;10.844;2023-08-06T06:31:10;98562.66;;;17.01;100.00
53546;BME280;39432;51.902;10.844;2023-08-06T06:33:40;98563.47;;;16.84;100.00
53546;BME280;39432;51.902;10.844;2023-08-06T06:36:10;98564.94;;;16.99;100.00
53546;BME280;39432;51.902;10.844;2023-08-06T06:38:43;98558.31;;;18.11;100.00
53546;BME280;39432;51.902;10.844;2023-08-06T06:41:13;98525.53;;;18.52;100.00
53546;BME280;39432;51.902;10.844;2023-08-06T06:43:43;98507.66;;;18.20;100.00
53546;BME280;39432;51.902;10.844;2023-08-06T06:46:13;98527.38;;;17.80;100.00
53546;BME280;39432;51.902;10.844;2023-08-06T06:48:43;98525.63;;;18.34;100.00
53546;BME280;39432;51.902;10.844;2023-08-06T06:51:13;98525.22;;;17.85;100.00
53546;BME280;39432;51.902;10.844;2023-08-06T06:53:45;98530.91;;;17.89;100.00
53546;BME280;39432;51.902;10.844;2023-08-06T06:56:15;98533.88;;;17.84;100.00
53546;BME280;39432;51.902;10.844;2023-08-06T06:58:45;98516.09;;;18.74;100.00
53546;BME280;39432;51.902;10.844;2023-08-06T07:01:18;98503.84;;;18.75;100.00
53546;BME280;39432;51.902;10.844;2023-08-06T07:03:48;98496.56;;;18.61;100.00
53546;BME280;39432;51.902;10.844;2023-08-06T07:06:18;98505.72;;;18.83;100.00
53546;BME280;39432;51.902;10.844;2023-08-06T07:08:51;98494.56;;;18.91;100.00
53546;BME280;39432;51.902;10.844;2023-08-06T07:11:21;98491.84;;;18.62;100.00
53546;BME280;39432;51.902;10.844;2023-08-06T07:13:56;98489.59;;;18.85;100.00
53546;BME280;39432;51.902;10.844;2023-08-06T07:16:26;98492.56;;;18.80;100.00
53546;BME280;39432;51.902;10.844;2023-08-06T07:18:56;98489.44;;;18.10;100.00
53546;BME280;39432;51.902;10.844;2023-08-06T07:21:27;98504.16;;;18.94;100.00
53546;BME280;39432;51.902;10.844;2023-08-06T07:23:59;98481.91;;;19.48;100.00
53546;BME280;39432;51.902;10.844;2023-08-06T07:26:29;98474.78;;;19.14;100.00
53546;BME280;39432;51.902;10.844;2023-08-06T07:28:59;98472.25;;;19.21;100.00
53546;BME280;39432;51.902;10.844;2023-08-06T07:31:30;98469.66;;;19.49;100.00
53546;BME280;39432;51.902;10.844;2023-08-06T07:34:00;98466.03;;;18.28;100.00
53546;BME280;39432;51.902;10.844;2023-08-06T07:36:30;98473.94;;;19.46;100.00
53546;BME280;39432;51.902;10.844;2023-08-06T07:39:02;98469.78;;;19.53;100.00
53546;BME280;39432;51.902;10.844;2023-08-06T07:41:33;98465.78;;;19.74;100.00
53546;BME280;39432;51.902;10.844;2023-08-06T07:44:04;98480.09;;;19.77;100.00
53546;BME280;39432;51.902;10.844;2023-08-06T07:46:34;98465.94;;;19.00;100.00
53546;BME280;39432;51.902;10.844;2023-08-06T07:49:06;98474.16;;;19.41;100.00
53546;BME280;39432;51.902;10.844;2023-08-06T07:51:36;98481.38;;;19.21;100.00
53546;BME280;39432;51.902;10.844;2023-08-06T07:54:08;98468.41;;;19.83;100.00
53546;BME280;39432;51.902;10.844;2023-08-06T07:56:38;98455.13;;;20.66;100.00
53546;BME280;39432;51.902;10.844;2023-08-06T07:59:08;98446.00;;;20.53;100.00
53546;BME280;39432;51.902;10.844;2023-08-06T08:01:38;98449.91;;;19.99;100.00
53546;BME280;39432;51.902;10.844;2023-08-06T08:04:08;98444.44;;;20.15;100.00
53546;BME280;39432;51.902;10.844;2023-08-06T08:06:38;98450.28;;;19.86;100.00
53546;BME280;39432;51.902;10.844;2023-08-06T08:09:11;98446.00;;;21.09;100.00
53546;BME280;39432;51.902;10.844;2023-08-06T08:11:41;98432.25;;;21.60;100.00
53546;BME280;39432;51.902;10.844;2023-08-06T08:14:11;98433.16;;;21.33;100.00
53546;BME280;39432;51.902;10.844;2023-08-06T08:16:41;98432.25;;;21.60;100.00
53546;BME280;39432;51.902;10.844;2023-08-06T08:19:11;98428.56;;;21.56;100.00
53546;BME280;39432;51.902;10.844;2023-08-06T08:21:41;98424.72;;;21.45;100.00
53546;BME280;39432;51.902;10.844;2023-08-06T08:24:14;98420.38;;;21.31;100.00
53546;BME280;39432;51.902;10.844;2023-08-06T08:26:46;98414.63;;;21.24;100.00
53546;BME280;39432;51.902;10.844;2023-08-06T08:29:16;98412.94;;;20.36;100.00
53546;BME280;39432;51.902;10.844;2023-08-06T08:31:47;98412.19;;;21.23;100.00
53546;BME280;39432;51.902;10.844;2023-08-06T08:34:17;98405.19;;;22.27;100.00
53546;BME280;39432;51.902;10.844;2023-08-06T08:36:47;98406.19;;;21.37;100.00
53546;BME280;39432;51.902;10.844;2023-08-06T08:39:20;98400.63;;;21.68;100.00
53546;BME280;39432;51.902;10.844;2023-08-06T08:41:50;98403.50;;;21.88;100.00
53546;BME280;39432;51.902;10.844;2023-08-06T08:44:20;98391.78;;;22.33;100.00
53546;BME280;39432;51.902;10.844;2023-08-06T08:46:55;98390.09;;;21.93;100.00
53546;BME280;39432;51.902;10.844;2023-08-06T08:49:26;98381.69;;;21.58;100.00
53546;BME280;39432;51.902;10.844;2023-08-06T08:51:59;98379.00;;;21.62;100.00
53546;BME280;39432;51.902;10.844;2023-08-06T08:54:32;98379.00;;;21.46;100.00
53546;BME280;39432;51.902;10.844;2023-08-06T08:57:03;98378.94;;;22.28;100.00
53546;BME280;39432;51.902;10.844;2023-08-06T08:59:33;98381.88;;;22.16;100.00
53546;BME280;39432;51.902;10.844;2023-08-06T09:02:04;98370.81;;;22.39;100.00
53546;BME280;39432;51.902;10.844;2023-08-06T09:04:35;98372.16;;;21.12;100.00
53546;BME280;39432;51.902;10.844;2023-08-06T09:07:05;98373.41;;;21.77;100.00
53546;BME280;39432;51.902;10.844;2023-08-06T09:09:40;98363.34;;;22.08;100.00
53546;BME280;39432;51.902;10.844;2023-08-06T09:12:15;98374.22;;;20.99;100.00
53546;BME280;39432;51.902;10.844;2023-08-06T09:14:45;98369.91;;;21.01;100.00
53546;BME280;39432;51.902;10.844;2023-08-06T09:17:16;98360.25;;;21.94;100.00
53546;BME280;39432;51.902;10.844;2023-08-06T09:19:47;98362.28;;;21.97;100.00
53546;BME280;39432;51.902;10.844;2023-08-06T09:22:17;98357.91;;;21.45;100.00
53546;BME280;39432;51.902;10.844;2023-08-06T09:24:50;98354.81;;;21.81;100.00
53546;BME280;39432;51.902;10.844;2023-08-06T09:27:22;98347.66;;;22.00;100.00
53546;BME280;39432;51.902;10.844;2023-08-06T09:29:52;98349.06;;;21.74;100.00
53546;BME280;39432;51.902;10.844;2023-08-06T09:32:22;98346.22;;;21.90;100.00
53546;BME280;39432;51.902;10.844;2023-08-06T09:34:56;98349.53;;;21.96;100.00
53546;BME280;39432;51.902;10.844;2023-08-06T09:37:35;98351.22;;;22.55;100.00
53546;BME280;39432;51.902;10.844;2023-08-06T09:40:24;98344.19;;;22.22;100.00
53546;BME280;39432;51.902;10.844;2023-08-06T09:42:54;98338.34;;;21.92;100.00
53546;BME280;39432;51.902;10.844;2023-08-06T09:45:28;98351.13;;;20.98;100.00
53546;BME280;39432;51.902;10.844;2023-08-06T09:48:00;98343.34;;;21.87;100.00
53546;BME280;39432;51.902;10.844;2023-08-06T09:50:34;98344.59;;;22.24;100.00
53546;BME280;39432;51.902;10.844;2023-08-06T09:53:07;98343.88;;;20.78;100.00
53546;BME280;39432;51.902;10.844;2023-08-06T09:55:40;98341.66;;;21.98;100.00
53546;BME280;39432;51.902;10.844;2023-08-06T09:58:10;98343.44;;;21.90;100.00
53546;BME280;39432;51.902;10.844;2023-08-06T10:00:41;98335.00;;;21.87;100.00
53546;BME280;39432;51.902;10.844;2023-08-06T10:03:12;98330.47;;;22.33;100.00
53546;BME280;39432;51.902;10.844;2023-08-06T10:05:45;98331.06;;;21.88;100.00
53546;BME280;39432;51.902;10.844;2023-08-06T10:08:15;98337.59;;;20.97;100.00
53546;BME280;39432;51.902;10.844;2023-08-06T10:10:48;98329.88;;;21.53;100.00
53546;BME280;39432;51.902;10.844;2023-08-06T10:13:21;98333.91;;;22.26;100.00
53546;BME280;39432;51.902;10.844;2023-08-06T10:15:51;98332.78;;;21.92;100.00
53546;BME280;39432;51.902;10.844;2023-08-06T10:18:22;98337.72;;;22.38;100.00
53546;BME280;39432;51.902;10.844;2023-08-06T10:20:53;98327.25;;;22.31;100.00
53546;BME280;39432;51.902;10.844;2023-08-06T10:23:33;98333.88;;;22.65;100.00
53546;BME280;39432;51.902;10.844;2023-08-06T10:26:08;98337.28;;;22.55;100.00
53546;BME280;39432;51.902;10.844;2023-08-06T10:28:39;98328.84;;;22.74;97.83
53546;BME280;39432;51.902;10.844;2023-08-06T10:31:09;98321.50;;;22.43;98.24
53546;BME280;39432;51.902;10.844;2023-08-06T10:33:43;98329.19;;;22.50;100.00
53546;BME280;39432;51.902;10.844;2023-08-06T10:36:14;98325.69;;;22.33;100.00
53546;BME280;39432;51.902;10.844;2023-08-06T10:38:45;98316.00;;;22.27;100.00
53546;BME280;39432;51.902;10.844;2023-08-06T10:41:23;98316.81;;;22.90;100.00
53546;BME280;39432;51.902;10.844;2023-08-06T10:44:05;98320.25;;;22.41;100.00
53546;BME280;39432;51.902;10.844;2023-08-06T10:46:36;98316.91;;;21.96;100.00
53546;BME280;39432;51.902;10.844;2023-08-06T10:49:07;98321.88;;;22.42;100.00
53546;BME280;39432;51.902;10.844;2023-08-06T10:51:37;98316.09;;;22.93;100.00
53546;BME280;39432;51.902;10.844;2023-08-06T10:54:07;98314.34;;;23.07;100.00
53546;BME280;39432;51.902;10.844;2023-08-06T10:56:42;98310.28;;;22.59;100.00
53546;BME280;39432;51.902;10.844;2023-08-06T10:59:15;98307.75;;;21.76;100.00
53546;BME280;39432;51.902;10.844;2023-08-06T11:01:45;98297.63;;;22.65;100.00
53546;BME280;39432;51.902;10.844;2023-08-06T11:04:15;98302.94;;;22.51;100.00
53546;BME280;39432;51.902;10.844;2023-08-06T11:06:51;98300.97;;;22.74;100.00
53546;BME280;39432;51.902;10.844;2023-08-06T11:09:21;98291.06;;;22.77;97.95
53546;BME280;39432;51.902;10.844;2023-08-06T11:11:54;98278.59;;;22.28;99.35
53546;BME280;39432;51.902;10.844;2023-08-06T11:14:24;98279.69;;;22.43;97.44
53546;BME280;39432;51.902;10.844;2023-08-06T11:16:54;98274.56;;;21.87;99.45
53546;BME280;39432;51.902;10.844;2023-08-06T11:19:24;98268.78;;;23.00;99.83
53546;BME280;39432;51.902;10.844;2023-08-06T11:21:54;98280.22;;;22.29;88.03
53546;BME280;39432;51.902;10.844;2023-08-06T11:24:25;98267.81;;;22.07;100.00
53546;BME280;39432;51.902;10.844;2023-08-06T11:26:58;98268.72;;;21.57;100.00
53546;BME280;39432;51.902;10.844;2023-08-06T11:29:28;98271.22;;;21.62;97.43
53546;BME280;39432;51.902;10.844;2023-08-06T11:32:03;98270.69;;;21.05;100.00
53546;BME280;39432;51.902;10.844;2023-08-06T11:34:33;98262.69;;;21.90;100.00
53546;BME280;39432;51.902;10.844;2023-08-06T11:37:04;98265.66;;;22.59;95.30
53546;BME280;39432;51.902;10.844;2023-08-06T11:39:35;98250.44;;;23.52;90.36
53546;BME280;39432;51.902;10.844;2023-08-06T11:42:08;98239.16;;;23.45;83.83
53546;BME280;39432;51.902;10.844;2023-08-06T11:44:38;98242.72;;;23.68;83.32
53546;BME280;39432;51.902;10.844;2023-08-06T11:47:14;98250.28;;;23.98;81.04
53546;BME280;39432;51.902;10.844;2023-08-06T11:49:45;98254.59;;;24.25;79.77
53546;BME280;39432;51.902;10.844;2023-08-06T11:52:19;98239.06;;;23.37;81.95
53546;BME280;39432;51.902;10.844;2023-08-06T11:55:01;98251.53;;;23.70;85.74
53546;BME280;39432;51.902;10.844;2023-08-06T11:57:37;98238.75;;;23.16;89.09
53546;BME280;39432;51.902;10.844;2023-08-06T12:00:09;98236.03;;;23.50;90.41
53546;BME280;39432;51.902;10.844;2023-08-06T12:02:43;98231.56;;;23.68;90.04
53546;BME280;39432;51.902;10.844;2023-08-06T12:05:15;98228.63;;;24.25;90.64
53546;BME280;39432;51.902;10.844;2023-08-06T12:07:48;98234.25;;;23.95;88.80
53546;BME280;39432;51.902;10.844;2023-08-06T12:10:19;98241.06;;;22.22;88.84
53546;BME280;39432;51.902;10.844;2023-08-06T12:12:53;98224.91;;;22.97;93.48
53546;BME280;39432;51.902;10.844;2023-08-06T12:15:24;98223.19;;;23.15;95.05
53546;BME280;39432;51.902;10.844;2023-08-06T12:17:56;98222.38;;;24.01;88.82
53546;BME280;39432;51.902;10.844;2023-08-06T12:20:26;98220.53;;;23.82;85.01
53546;BME280;39432;51.902;10.844;2023-08-06T12:22:56;98217.41;;;23.87;86.13
53546;BME280;39432;51.902;10.844;2023-08-06T12:25:27;98212.03;;;23.72;87.15
53546;BME280;39432;51.902;10.844;2023-08-06T12:27:59;98215.63;;;23.72;85.74
53546;BME280;39432;51.902;10.844;2023-08-06T12:30:29;98214.63;;;23.57;87.01
53546;BME280;39432;51.902;10.844;2023-08-06T12:32:59;98217.22;;;22.25;88.68
53546;BME280;39432;51.902;10.844;2023-08-06T12:35:29;98218.69;;;21.80;93.57
53546;BME280;39432;51.902;10.844;2023-08-06T12:38:00;98210.59;;;22.10;94.02
53546;BME280;39432;51.902;10.844;2023-08-06T12:40:30;98206.38;;;23.38;90.29
53546;BME280;39432;51.902;10.844;2023-08-06T12:43:08;98202.38;;;23.96;83.56
53546;BME280;39432;51.902;10.844;2023-08-06T12:45:38;98206.09;;;21.86;87.94
53546;BME280;39432;51.902;10.844;2023-08-06T12:48:07;98208.59;;;21.72;98.35
53546;BME280;39432;51.902;10.844;2023-08-06T12:50:37;98209.91;;;22.59;94.61
53546;BME280;39432;51.902;10.844;2023-08-06T12:53:07;98205.09;;;22.82;87.29
53546;BME280;39432;51.902;10.844;2023-08-06T12:55:38;98202.13;;;22.26;89.66
53546;BME280;39432;51.902;10.844;2023-08-06T12:58:10;98202.19;;;22.75;96.92
53546;BME280;39432;51.902;10.844;2023-08-06T13:00:40;98211.00;;;22.77;93.87